El Dorado Springs, Missouri
Current Conditions -  °F | °C
As of 6:55 PM on Monday 22 Dec 2014 (Local Time) from KGLY Reporting Station
Drizzle Drizzle  
Wind Chill: 41°   Ceiling: 1500
Heat Index: 46°   Visibility: 3mi
Dew Point: 46°   Wind: 12mph
Humidity: 100%   Direction: 260°W
Pressure: 29.53"   Gusts: NA
Location:  37.88°N, 94.02°W
Report Text: KGLY 230055Z AUTO 26010KT 3SM DZ SCT007 OVC015 08/08 A2953 RMK AO2
Loading
Personal Weather Stations






























Interactive Weather Map New forecast layout! Learn more

10-Day Weather Forecast

Advertisements
Track Severe Weather on mobile